sensor_id;sensor_type;location;lat;lon;timestamp;temperature;humidity
1453;DHT22;720;47.738;7.998;2023-06-22T00:00:02;18.30;99.90
1453;DHT22;720;47.738;7.998;2023-06-22T00:02:33;18.20;99.90
1453;DHT22;720;47.738;7.998;2023-06-22T00:04:59;18.10;99.90
1453;DHT22;720;47.738;7.998;2023-06-22T00:07:24;18.00;99.90
1453;DHT22;720;47.738;7.998;2023-06-22T00:09:50;18.00;99.90
1453;DHT22;720;47.738;7.998;2023-06-22T00:12:16;18.10;99.90
1453;DHT22;720;47.738;7.998;2023-06-22T00:14:41;18.20;99.90
1453;DHT22;720;47.738;7.998;2023-06-22T00:17:07;18.30;99.90
1453;DHT22;720;47.738;7.998;2023-06-22T00:19:32;18.30;99.90
1453;DHT22;720;47.738;7.998;2023-06-22T00:22:00;18.30;99.90
1453;DHT22;720;47.738;7.998;2023-06-22T00:24:28;18.30;99.90
1453;DHT22;720;47.738;7.998;2023-06-22T00:26:54;18.30;99.90
1453;DHT22;720;47.738;7.998;2023-06-22T00:29:19;18.20;99.90
1453;DHT22;720;47.738;7.998;2023-06-22T00:31:45;18.20;99.90
1453;DHT22;720;47.738;7.998;2023-06-22T00:34:11;18.10;99.90
1453;DHT22;720;47.738;7.998;2023-06-22T00:36:36;18.00;99.90
1453;DHT22;720;47.738;7.998;2023-06-22T00:39:02;18.00;99.90
1453;DHT22;720;47.738;7.998;2023-06-22T00:41:28;18.00;99.90
1453;DHT22;720;47.738;7.998;2023-06-22T00:43:54;17.90;99.90
1453;DHT22;720;47.738;7.998;2023-06-22T00:46:21;18.00;99.90
1453;DHT22;720;47.738;7.998;2023-06-22T00:48:48;17.90;99.90
1453;DHT22;720;47.738;7.998;2023-06-22T00:51:14;17.90;99.90
1453;DHT22;720;47.738;7.998;2023-06-22T00:53:39;17.90;99.90
1453;DHT22;720;47.738;7.998;2023-06-22T00:56:06;17.80;99.90
1453;DHT22;720;47.738;7.998;2023-06-22T00:58:35;17.90;99.90
1453;DHT22;720;47.738;7.998;2023-06-22T01:01:01;17.90;99.90
1453;DHT22;720;47.738;7.998;2023-06-22T01:03:27;17.90;99.90
1453;DHT22;720;47.738;7.998;2023-06-22T01:06:00;17.90;99.90
1453;DHT22;720;47.738;7.998;2023-06-22T01:08:47;17.80;99.90
1453;DHT22;720;47.738;7.998;2023-06-22T01:11:25;17.90;99.90
1453;DHT22;720;47.738;7.998;2023-06-22T01:14:21;17.80;99.90
1453;DHT22;720;47.738;7.998;2023-06-22T01:16:51;17.80;99.90
1453;DHT22;720;47.738;7.998;2023-06-22T01:22:09;17.70;99.90
1453;DHT22;720;47.738;7.998;2023-06-22T01:28:19;17.60;99.90
1453;DHT22;720;47.738;7.998;2023-06-22T01:30:49;17.60;99.90
1453;DHT22;720;47.738;7.998;2023-06-22T01:33:26;17.60;99.90
1453;DHT22;720;47.738;7.998;2023-06-22T01:35:52;17.50;99.90
1453;DHT22;720;47.738;7.998;2023-06-22T01:38:18;17.50;99.90
1453;DHT22;720;47.738;7.998;2023-06-22T01:40:43;17.50;99.90
1453;DHT22;720;47.738;7.998;2023-06-22T01:43:09;17.50;99.90
1453;DHT22;720;47.738;7.998;2023-06-22T01:45:35;17.50;99.90
1453;DHT22;720;47.738;7.998;2023-06-22T01:48:01;17.50;99.90
1453;DHT22;720;47.738;7.998;2023-06-22T01:50:27;17.40;99.90
1453;DHT22;720;47.738;7.998;2023-06-22T01:52:52;17.30;99.90
1453;DHT22;720;47.738;7.998;2023-06-22T01:55:18;17.40;99.90
1453;DHT22;720;47.738;7.998;2023-06-22T01:57:44;17.40;99.90
1453;DHT22;720;47.738;7.998;2023-06-22T02:00:13;17.40;99.90
1453;DHT22;720;47.738;7.998;2023-06-22T02:02:45;17.30;99.90
1453;DHT22;720;47.738;7.998;2023-06-22T02:05:17;17.30;99.90
1453;DHT22;720;47.738;7.998;2023-06-22T02:07:55;17.30;99.90
1453;DHT22;720;47.738;7.998;2023-06-22T02:10:23;17.30;99.90
1453;DHT22;720;47.738;7.998;2023-06-22T02:12:50;17.30;99.90
1453;DHT22;720;47.738;7.998;2023-06-22T02:15:17;17.20;99.90
1453;DHT22;720;47.738;7.998;2023-06-22T02:17:43;17.20;99.90
1453;DHT22;720;47.738;7.998;2023-06-22T02:20:14;17.20;99.90
1453;DHT22;720;47.738;7.998;2023-06-22T02:22:40;17.10;99.90
1453;DHT22;720;47.738;7.998;2023-06-22T02:25:06;17.10;99.90
1453;DHT22;720;47.738;7.998;2023-06-22T02:27:32;17.10;99.90
1453;DHT22;720;47.738;7.998;2023-06-22T02:32:24;17.10;99.90
1453;DHT22;720;47.738;7.998;2023-06-22T02:34:49;17.00;99.90
1453;DHT22;720;47.738;7.998;2023-06-22T02:37:16;16.90;99.90
1453;DHT22;720;47.738;7.998;2023-06-22T02:39:42;17.00;99.90
1453;DHT22;720;47.738;7.998;2023-06-22T02:42:08;17.00;99.90
1453;DHT22;720;47.738;7.998;2023-06-22T02:44:36;17.10;99.90
1453;DHT22;720;47.738;7.998;2023-06-22T02:47:02;16.90;99.90
1453;DHT22;720;47.738;7.998;2023-06-22T02:49:27;16.90;99.90
1453;DHT22;720;47.738;7.998;2023-06-22T02:51:53;17.00;99.90
1453;DHT22;720;47.738;7.998;2023-06-22T02:54:20;17.10;99.90
1453;DHT22;720;47.738;7.998;2023-06-22T02:56:46;17.10;99.90
1453;DHT22;720;47.738;7.998;2023-06-22T02:59:12;17.10;99.90
1453;DHT22;720;47.738;7.998;2023-06-22T03:01:37;17.10;99.90
1453;DHT22;720;47.738;7.998;2023-06-22T03:04:06;17.00;99.90
1453;DHT22;720;47.738;7.998;2023-06-22T03:06:31;17.00;99.90
1453;DHT22;720;47.738;7.998;2023-06-22T03:09:00;16.90;99.90
1453;DHT22;720;47.738;7.998;2023-06-22T03:11:26;16.80;99.90
1453;DHT22;720;47.738;7.998;2023-06-22T03:13:52;16.70;99.90
1453;DHT22;720;47.738;7.998;2023-06-22T03:16:18;16.80;99.90
1453;DHT22;720;47.738;7.998;2023-06-22T03:18:44;16.90;99.90
1453;DHT22;720;47.738;7.998;2023-06-22T03:21:10;16.90;99.90
1453;DHT22;720;47.738;7.998;2023-06-22T03:23:36;16.80;99.90
1453;DHT22;720;47.738;7.998;2023-06-22T03:26:02;16.80;99.90
1453;DHT22;720;47.738;7.998;2023-06-22T03:28:28;16.70;99.90
1453;DHT22;720;47.738;7.998;2023-06-22T03:30:53;16.60;99.90
1453;DHT22;720;47.738;7.998;2023-06-22T03:33:19;16.60;99.90
1453;DHT22;720;47.738;7.998;2023-06-22T03:35:45;16.60;99.90
1453;DHT22;720;47.738;7.998;2023-06-22T03:38:10;16.60;99.90
1453;DHT22;720;47.738;7.998;2023-06-22T03:40:36;16.60;99.90
1453;DHT22;720;47.738;7.998;2023-06-22T03:43:01;16.80;99.90
1453;DHT22;720;47.738;7.998;2023-06-22T03:45:27;16.70;99.90
1453;DHT22;720;47.738;7.998;2023-06-22T03:47:52;16.80;99.90
1453;DHT22;720;47.738;7.998;2023-06-22T03:50:18;16.80;99.90
1453;DHT22;720;47.738;7.998;2023-06-22T03:52:46;16.80;99.90
1453;DHT22;720;47.738;7.998;2023-06-22T03:55:11;16.80;99.90
1453;DHT22;720;47.738;7.998;2023-06-22T03:57:37;16.80;99.90
1453;DHT22;720;47.738;7.998;2023-06-22T04:00:03;16.90;99.90
1453;DHT22;720;47.738;7.998;2023-06-22T04:02:31;17.00;99.90
1453;DHT22;720;47.738;7.998;2023-06-22T04:04:57;17.10;99.90
1453;DHT22;720;47.738;7.998;2023-06-22T04:07:22;17.20;99.90
1453;DHT22;720;47.738;7.998;2023-06-22T04:09:48;17.30;99.90
1453;DHT22;720;47.738;7.998;2023-06-22T04:12:13;17.30;99.90
1453;DHT22;720;47.738;7.998;2023-06-22T04:14:39;17.30;99.90
1453;DHT22;720;47.738;7.998;2023-06-22T04:17:05;17.50;99.90
1453;DHT22;720;47.738;7.998;2023-06-22T04:19:30;17.40;99.90
1453;DHT22;720;47.738;7.998;2023-06-22T04:21:56;17.40;99.90
1453;DHT22;720;47.738;7.998;2023-06-22T04:24:22;17.50;99.90
1453;DHT22;720;47.738;7.998;2023-06-22T04:29:13;17.80;99.90
1453;DHT22;720;47.738;7.998;2023-06-22T04:31:39;18.00;99.90
1453;DHT22;720;47.738;7.998;2023-06-22T04:34:06;18.20;99.90
1453;DHT22;720;47.738;7.998;2023-06-22T04:36:35;18.40;99.90
1453;DHT22;720;47.738;7.998;2023-06-22T04:39:09;18.50;99.90
1453;DHT22;720;47.738;7.998;2023-06-22T04:41:37;18.80;99.90
1453;DHT22;720;47.738;7.998;2023-06-22T04:44:10;19.00;99.90
1453;DHT22;720;47.738;7.998;2023-06-22T04:46:36;19.10;99.90
1453;DHT22;720;47.738;7.998;2023-06-22T04:49:10;19.30;99.90
1453;DHT22;720;47.738;7.998;2023-06-22T04:51:42;19.40;99.90
1453;DHT22;720;47.738;7.998;2023-06-22T04:54:09;19.60;99.90
1453;DHT22;720;47.738;7.998;2023-06-22T04:56:34;19.70;99.90
1453;DHT22;720;47.738;7.998;2023-06-22T04:59:01;19.80;99.90
1453;DHT22;720;47.738;7.998;2023-06-22T05:01:26;20.00;99.90
1453;DHT22;720;47.738;7.998;2023-06-22T05:03:52;20.10;99.90
1453;DHT22;720;47.738;7.998;2023-06-22T05:06:21;20.00;99.90
1453;DHT22;720;47.738;7.998;2023-06-22T05:08:53;20.20;99.90
1453;DHT22;720;47.738;7.998;2023-06-22T05:11:29;20.30;99.90
1453;DHT22;720;47.738;7.998;2023-06-22T05:13:55;20.40;99.90
1453;DHT22;720;47.738;7.998;2023-06-22T05:16:21;20.50;99.90
1453;DHT22;720;47.738;7.998;2023-06-22T05:18:52;20.80;99.90
1453;DHT22;720;47.738;7.998;2023-06-22T05:21:22;21.10;99.90
1453;DHT22;720;47.738;7.998;2023-06-22T05:23:48;21.40;99.90
1453;DHT22;720;47.738;7.998;2023-06-22T05:26:14;21.70;99.90
1453;DHT22;720;47.738;7.998;2023-06-22T05:28:40;21.90;99.90
1453;DHT22;720;47.738;7.998;2023-06-22T05:31:05;22.00;99.90
1453;DHT22;720;47.738;7.998;2023-06-22T05:33:31;22.20;99.90
1453;DHT22;720;47.738;7.998;2023-06-22T05:35:56;22.40;99.90
1453;DHT22;720;47.738;7.998;2023-06-22T05:38:22;22.60;99.90
1453;DHT22;720;47.738;7.998;2023-06-22T05:40:48;22.80;99.90
1453;DHT22;720;47.738;7.998;2023-06-22T05:43:13;23.00;99.90
1453;DHT22;720;47.738;7.998;2023-06-22T05:45:39;23.30;99.90
1453;DHT22;720;47.738;7.998;2023-06-22T05:48:05;23.40;99.20
1453;DHT22;720;47.738;7.998;2023-06-22T05:50:30;23.50;98.60
1453;DHT22;720;47.738;7.998;2023-06-22T05:52:56;23.50;98.50
1453;DHT22;720;47.738;7.998;2023-06-22T05:55:22;23.70;98.90
1453;DHT22;720;47.738;7.998;2023-06-22T05:57:47;23.80;98.70
1453;DHT22;720;47.738;7.998;2023-06-22T06:00:13;23.80;98.10
1453;DHT22;720;47.738;7.998;2023-06-22T06:02:40;23.90;98.50
1453;DHT22;720;47.738;7.998;2023-06-22T06:05:11;24.20;98.80
1453;DHT22;720;47.738;7.998;2023-06-22T06:07:39;24.30;98.40
1453;DHT22;720;47.738;7.998;2023-06-22T06:10:05;24.70;98.20
1453;DHT22;720;47.738;7.998;2023-06-22T06:12:31;25.10;97.80
1453;DHT22;720;47.738;7.998;2023-06-22T06:14:57;25.60;96.60
1453;DHT22;720;47.738;7.998;2023-06-22T06:17:23;26.10;96.30
1453;DHT22;720;47.738;7.998;2023-06-22T06:19:48;26.70;95.60
1453;DHT22;720;47.738;7.998;2023-06-22T06:22:14;27.10;94.00
1453;DHT22;720;47.738;7.998;2023-06-22T06:24:39;27.70;93.60
1453;DHT22;720;47.738;7.998;2023-06-22T06:27:05;29.80;93.10
1453;DHT22;720;47.738;7.998;2023-06-22T06:29:32;29.50;90.80
1453;DHT22;720;47.738;7.998;2023-06-22T06:31:57;30.80;87.90
1453;DHT22;720;47.738;7.998;2023-06-22T06:34:23;31.70;84.40
1453;DHT22;720;47.738;7.998;2023-06-22T06:36:49;32.60;80.90
1453;DHT22;720;47.738;7.998;2023-06-22T06:39:14;32.80;74.90
1453;DHT22;720;47.738;7.998;2023-06-22T06:41:41;32.20;74.20
1453;DHT22;720;47.738;7.998;2023-06-22T06:44:07;31.20;77.50
1453;DHT22;720;47.738;7.998;2023-06-22T06:46:32;30.30;80.00
1453;DHT22;720;47.738;7.998;2023-06-22T06:48:58;29.60;80.90
1453;DHT22;720;47.738;7.998;2023-06-22T06:51:24;28.80;84.50
1453;DHT22;720;47.738;7.998;2023-06-22T06:53:49;28.00;86.80
1453;DHT22;720;47.738;7.998;2023-06-22T06:56:16;27.70;90.00
1453;DHT22;720;47.738;7.998;2023-06-22T06:58:41;28.40;90.70
1453;DHT22;720;47.738;7.998;2023-06-22T07:01:08;29.80;85.80
1453;DHT22;720;47.738;7.998;2023-06-22T07:03:34;30.80;82.60
1453;DHT22;720;47.738;7.998;2023-06-22T07:06:00;30.70;79.80
1453;DHT22;720;47.738;7.998;2023-06-22T07:08:26;29.50;82.20
1453;DHT22;720;47.738;7.998;2023-06-22T07:10:54;28.60;85.60
1453;DHT22;720;47.738;7.998;2023-06-22T07:13:20;27.90;87.30
1453;DHT22;720;47.738;7.998;2023-06-22T07:15:46;27.30;88.50
1453;DHT22;720;47.738;7.998;2023-06-22T07:18:11;26.60;90.10
1453;DHT22;720;47.738;7.998;2023-06-22T07:20:37;26.30;91.00
1453;DHT22;720;47.738;7.998;2023-06-22T07:23:04;26.50;91.30
1453;DHT22;720;47.738;7.998;2023-06-22T07:25:30;26.90;90.40
1453;DHT22;720;47.738;7.998;2023-06-22T07:28:04;27.30;89.30
1453;DHT22;720;47.738;7.998;2023-06-22T07:30:32;27.80;88.80
1453;DHT22;720;47.738;7.998;2023-06-22T07:32:58;28.30;86.50
1453;DHT22;720;47.738;7.998;2023-06-22T07:35:24;28.30;88.10
1453;DHT22;720;47.738;7.998;2023-06-22T07:37:50;28.30;85.30
1453;DHT22;720;47.738;7.998;2023-06-22T07:40:16;28.00;85.30
1453;DHT22;720;47.738;7.998;2023-06-22T07:42:41;28.20;86.90
1453;DHT22;720;47.738;7.998;2023-06-22T07:45:07;28.50;84.80
1453;DHT22;720;47.738;7.998;2023-06-22T07:47:34;28.70;84.30
1453;DHT22;720;47.738;7.998;2023-06-22T07:50:03;28.20;83.90
1453;DHT22;720;47.738;7.998;2023-06-22T07:52:29;27.30;87.90
1453;DHT22;720;47.738;7.998;2023-06-22T07:54:55;27.20;88.60
1453;DHT22;720;47.738;7.998;2023-06-22T07:57:21;27.90;86.70
1453;DHT22;720;47.738;7.998;2023-06-22T07:59:47;28.50;83.00
1453;DHT22;720;47.738;7.998;2023-06-22T08:02:12;28.90;83.20
1453;DHT22;720;47.738;7.998;2023-06-22T08:04:38;29.20;83.10
1453;DHT22;720;47.738;7.998;2023-06-22T08:07:05;29.20;92.50
1453;DHT22;720;47.738;7.998;2023-06-22T08:09:32;29.20;81.40
1453;DHT22;720;47.738;7.998;2023-06-22T08:11:58;28.80;80.30
1453;DHT22;720;47.738;7.998;2023-06-22T08:14:25;29.10;82.10
1453;DHT22;720;47.738;7.998;2023-06-22T08:16:51;29.70;83.00
1453;DHT22;720;47.738;7.998;2023-06-22T08:19:17;30.40;80.40
1453;DHT22;720;47.738;7.998;2023-06-22T08:21:43;31.30;77.10
1453;DHT22;720;47.738;7.998;2023-06-22T08:24:09;32.20;70.80
1453;DHT22;720;47.738;7.998;2023-06-22T08:26:35;33.10;68.70
1453;DHT22;720;47.738;7.998;2023-06-22T08:29:03;33.70;67.50
1453;DHT22;720;47.738;7.998;2023-06-22T08:31:30;33.90;67.60
1453;DHT22;720;47.738;7.998;2023-06-22T08:33:55;34.30;67.40
1453;DHT22;720;47.738;7.998;2023-06-22T08:36:21;34.50;62.60
1453;DHT22;720;47.738;7.998;2023-06-22T08:38:47;34.10;61.80
1453;DHT22;720;47.738;7.998;2023-06-22T08:41:16;33.20;63.40
1453;DHT22;720;47.738;7.998;2023-06-22T08:43:43;33.00;63.70
1453;DHT22;720;47.738;7.998;2023-06-22T08:46:10;33.80;64.00
1453;DHT22;720;47.738;7.998;2023-06-22T08:48:36;35.00;60.70
1453;DHT22;720;47.738;7.998;2023-06-22T08:51:01;36.50;62.10
1453;DHT22;720;47.738;7.998;2023-06-22T08:53:27;37.90;56.00
1453;DHT22;720;47.738;7.998;2023-06-22T08:55:53;39.00;53.20
1453;DHT22;720;47.738;7.998;2023-06-22T08:58:19;39.90;50.40
1453;DHT22;720;47.738;7.998;2023-06-22T09:00:46;40.50;47.20
1453;DHT22;720;47.738;7.998;2023-06-22T09:03:13;40.90;46.90
1453;DHT22;720;47.738;7.998;2023-06-22T09:05:38;40.80;43.00
1453;DHT22;720;47.738;7.998;2023-06-22T09:08:04;41.00;42.30
1453;DHT22;720;47.738;7.998;2023-06-22T09:10:30;41.10;41.90
1453;DHT22;720;47.738;7.998;2023-06-22T09:12:56;40.70;41.00
1453;DHT22;720;47.738;7.998;2023-06-22T09:15:22;40.30;42.70
1453;DHT22;720;47.738;7.998;2023-06-22T09:17:48;40.00;40.20
1453;DHT22;720;47.738;7.998;2023-06-22T09:20:14;39.70;42.80
1453;DHT22;720;47.738;7.998;2023-06-22T09:22:41;39.00;41.10
1453;DHT22;720;47.738;7.998;2023-06-22T09:25:07;37.80;41.90
1453;DHT22;720;47.738;7.998;2023-06-22T09:27:33;37.40;43.00
1453;DHT22;720;47.738;7.998;2023-06-22T09:29:58;37.10;43.70
1453;DHT22;720;47.738;7.998;2023-06-22T09:32:24;37.00;42.30
1453;DHT22;720;47.738;7.998;2023-06-22T09:34:51;37.10;42.00
1453;DHT22;720;47.738;7.998;2023-06-22T09:37:17;36.80;53.10
1453;DHT22;720;47.738;7.998;2023-06-22T09:39:42;36.70;45.00
1453;DHT22;720;47.738;7.998;2023-06-22T09:42:08;36.00;41.90
1453;DHT22;720;47.738;7.998;2023-06-22T09:44:34;35.20;44.20
1453;DHT22;720;47.738;7.998;2023-06-22T09:47:00;34.50;45.50
1453;DHT22;720;47.738;7.998;2023-06-22T09:49:26;34.10;46.50
1453;DHT22;720;47.738;7.998;2023-06-22T09:51:51;33.70;47.40
1453;DHT22;720;47.738;7.998;2023-06-22T09:54:17;33.40;47.00
1453;DHT22;720;47.738;7.998;2023-06-22T09:56:43;33.10;50.40
1453;DHT22;720;47.738;7.998;2023-06-22T09:59:09;33.30;48.20
1453;DHT22;720;47.738;7.998;2023-06-22T10:01:34;33.40;47.40
1453;DHT22;720;47.738;7.998;2023-06-22T10:04:01;33.50;50.20
1453;DHT22;720;47.738;7.998;2023-06-22T10:06:26;33.50;49.80
1453;DHT22;720;47.738;7.998;2023-06-22T10:08:52;33.40;51.80
1453;DHT22;720;47.738;7.998;2023-06-22T10:11:18;32.90;49.40
1453;DHT22;720;47.738;7.998;2023-06-22T10:13:43;32.40;49.90
1453;DHT22;720;47.738;7.998;2023-06-22T10:16:09;32.10;51.30
1453;DHT22;720;47.738;7.998;2023-06-22T10:18:35;31.80;52.60
1453;DHT22;720;47.738;7.998;2023-06-22T10:21:00;31.60;56.70
1453;DHT22;720;47.738;7.998;2023-06-22T10:23:26;31.60;55.20
1453;DHT22;720;47.738;7.998;2023-06-22T10:25:52;31.60;55.50
1453;DHT22;720;47.738;7.998;2023-06-22T10:28:17;31.80;56.20
1453;DHT22;720;47.738;7.998;2023-06-22T10:30:43;31.90;59.80
1453;DHT22;720;47.738;7.998;2023-06-22T10:33:10;31.90;59.60
1453;DHT22;720;47.738;7.998;2023-06-22T10:35:36;31.80;59.40
1453;DHT22;720;47.738;7.998;2023-06-22T10:38:05;31.70;59.50
1453;DHT22;720;47.738;7.998;2023-06-22T10:40:31;31.70;61.80
1453;DHT22;720;47.738;7.998;2023-06-22T10:42:57;31.40;62.50
1453;DHT22;720;47.738;7.998;2023-06-22T10:45:23;31.20;63.20
1453;DHT22;720;47.738;7.998;2023-06-22T10:47:48;30.80;63.30
1453;DHT22;720;47.738;7.998;2023-06-22T10:50:14;30.70;65.00
1453;DHT22;720;47.738;7.998;2023-06-22T10:52:40;30.60;65.90
1453;DHT22;720;47.738;7.998;2023-06-22T10:55:08;30.20;67.40
1453;DHT22;720;47.738;7.998;2023-06-22T10:57:33;29.90;70.20
1453;DHT22;720;47.738;7.998;2023-06-22T10:59:59;29.60;71.00
1453;DHT22;720;47.738;7.998;2023-06-22T11:02:25;29.40;72.80
1453;DHT22;720;47.738;7.998;2023-06-22T11:04:53;29.10;74.50
1453;DHT22;720;47.738;7.998;2023-06-22T11:07:19;29.00;93.10
1453;DHT22;720;47.738;7.998;2023-06-22T11:09:44;28.70;81.50
1453;DHT22;720;47.738;7.998;2023-06-22T11:12:10;28.50;82.90
1453;DHT22;720;47.738;7.998;2023-06-22T11:14:36;28.10;85.20
1453;DHT22;720;47.738;7.998;2023-06-22T11:17:01;28.00;84.40
1453;DHT22;720;47.738;7.998;2023-06-22T11:19:27;28.00;86.20
1453;DHT22;720;47.738;7.998;2023-06-22T11:21:52;27.90;86.90
1453;DHT22;720;47.738;7.998;2023-06-22T11:24:18;27.80;90.30
1453;DHT22;720;47.738;7.998;2023-06-22T11:26:44;27.50;88.90
1453;DHT22;720;47.738;7.998;2023-06-22T11:29:09;27.40;89.60
1453;DHT22;720;47.738;7.998;2023-06-22T11:31:35;27.40;90.60
1453;DHT22;720;47.738;7.998;2023-06-22T11:34:01;27.20;91.00
1453;DHT22;720;47.738;7.998;2023-06-22T11:36:28;27.10;91.50
1453;DHT22;720;47.738;7.998;2023-06-22T11:38:54;27.20;93.50
1453;DHT22;720;47.738;7.998;2023-06-22T11:41:20;27.30;94.20
1453;DHT22;720;47.738;7.998;2023-06-22T11:43:45;27.30;94.80
1453;DHT22;720;47.738;7.998;2023-06-22T11:46:11;27.30;93.60
1453;DHT22;720;47.738;7.998;2023-06-22T11:48:37;27.30;92.90
1453;DHT22;720;47.738;7.998;2023-06-22T11:51:03;27.40;93.40
1453;DHT22;720;47.738;7.998;2023-06-22T11:53:29;27.80;94.00
1453;DHT22;720;47.738;7.998;2023-06-22T11:55:55;28.20;94.10
1453;DHT22;720;47.738;7.998;2023-06-22T11:58:22;28.60;93.70
1453;DHT22;720;47.738;7.998;2023-06-22T12:00:48;29.00;91.10
1453;DHT22;720;47.738;7.998;2023-06-22T12:03:14;29.30;91.30
1453;DHT22;720;47.738;7.998;2023-06-22T12:05:40;29.50;91.40
1453;DHT22;720;47.738;7.998;2023-06-22T12:08:06;29.60;91.20
1453;DHT22;720;47.738;7.998;2023-06-22T12:10:32;29.60;90.70
1453;DHT22;720;47.738;7.998;2023-06-22T12:12:57;29.50;90.40
1453;DHT22;720;47.738;7.998;2023-06-22T12:15:25;29.30;90.20
1453;DHT22;720;47.738;7.998;2023-06-22T12:17:51;29.20;87.80
1453;DHT22;720;47.738;7.998;2023-06-22T12:20:17;29.20;81.50
1453;DHT22;720;47.738;7.998;2023-06-22T12:22:42;29.30;87.40
1453;DHT22;720;47.738;7.998;2023-06-22T12:25:09;29.40;84.00
1453;DHT22;720;47.738;7.998;2023-06-22T12:27:35;29.40;79.20
1453;DHT22;720;47.738;7.998;2023-06-22T12:30:02;29.60;77.00
1453;DHT22;720;47.738;7.998;2023-06-22T12:32:28;29.70;77.30
1453;DHT22;720;47.738;7.998;2023-06-22T12:34:54;29.70;78.30
1453;DHT22;720;47.738;7.998;2023-06-22T12:37:20;29.80;84.80
1453;DHT22;720;47.738;7.998;2023-06-22T12:39:46;29.70;69.40
1453;DHT22;720;47.738;7.998;2023-06-22T12:42:12;29.80;68.20
1453;DHT22;720;47.738;7.998;2023-06-22T12:44:38;29.70;66.00
1453;DHT22;720;47.738;7.998;2023-06-22T12:47:05;30.00;75.20
1453;DHT22;720;47.738;7.998;2023-06-22T12:49:31;29.90;69.60
1453;DHT22;720;47.738;7.998;2023-06-22T12:51:56;29.90;66.60
1453;DHT22;720;47.738;7.998;2023-06-22T12:54:22;29.60;63.00
1453;DHT22;720;47.738;7.998;2023-06-22T12:56:49;29.40;63.90
1453;DHT22;720;47.738;7.998;2023-06-22T12:59:15;29.20;64.50
1453;DHT22;720;47.738;7.998;2023-06-22T13:01:42;29.00;63.20
1453;DHT22;720;47.738;7.998;2023-06-22T13:04:09;28.80;67.60
1453;DHT22;720;47.738;7.998;2023-06-22T13:06:36;28.70;67.60
1453;DHT22;720;47.738;7.998;2023-06-22T13:09:02;28.40;71.10
1453;DHT22;720;47.738;7.998;2023-06-22T13:11:30;28.50;69.80
1453;DHT22;720;47.738;7.998;2023-06-22T13:13:56;28.60;65.10
1453;DHT22;720;47.738;7.998;2023-06-22T13:16:21;28.90;71.00
1453;DHT22;720;47.738;7.998;2023-06-22T13:18:47;29.10;67.20
1453;DHT22;720;47.738;7.998;2023-06-22T13:21:12;29.50;65.40
1453;DHT22;720;47.738;7.998;2023-06-22T13:23:39;29.90;66.20
1453;DHT22;720;47.738;7.998;2023-06-22T13:26:05;30.00;65.10
1453;DHT22;720;47.738;7.998;2023-06-22T13:28:30;30.00;65.40
1453;DHT22;720;47.738;7.998;2023-06-22T13:30:56;30.00;65.00
1453;DHT22;720;47.738;7.998;2023-06-22T13:33:22;29.90;67.00
1453;DHT22;720;47.738;7.998;2023-06-22T13:35:47;29.90;68.30
1453;DHT22;720;47.738;7.998;2023-06-22T13:38:13;29.90;69.90
1453;DHT22;720;47.738;7.998;2023-06-22T13:40:38;29.60;71.70
1453;DHT22;720;47.738;7.998;2023-06-22T13:43:04;29.40;75.70
1453;DHT22;720;47.738;7.998;2023-06-22T13:45:31;29.20;74.80
1453;DHT22;720;47.738;7.998;2023-06-22T13:47:56;28.90;75.60
1453;DHT22;720;47.738;7.998;2023-06-22T13:50:22;28.50;79.00
1453;DHT22;720;47.738;7.998;2023-06-22T13:52:48;28.20;79.90
1453;DHT22;720;47.738;7.998;2023-06-22T13:55:13;28.00;82.40
1453;DHT22;720;47.738;7.998;2023-06-22T13:57:40;27.90;82.50
1453;DHT22;720;47.738;7.998;2023-06-22T14:00:06;27.70;80.20
1453;DHT22;720;47.738;7.998;2023-06-22T14:02:33;27.40;79.30
1453;DHT22;720;47.738;7.998;2023-06-22T14:04:59;27.10;82.90
1453;DHT22;720;47.738;7.998;2023-06-22T14:07:25;26.90;83.80
1453;DHT22;720;47.738;7.998;2023-06-22T14:09:50;26.60;83.30
1453;DHT22;720;47.738;7.998;2023-06-22T14:12:16;26.40;88.00
1453;DHT22;720;47.738;7.998;2023-06-22T14:14:43;26.20;88.30
1453;DHT22;720;47.738;7.998;2023-06-22T14:17:09;26.70;93.70
1453;DHT22;720;47.738;7.998;2023-06-22T14:19:35;26.40;90.40
1453;DHT22;720;47.738;7.998;2023-06-22T14:22:01;26.50;88.90
1453;DHT22;720;47.738;7.998;2023-06-22T14:24:27;26.60;91.20
1453;DHT22;720;47.738;7.998;2023-06-22T14:26:53;26.60;86.90
1453;DHT22;720;47.738;7.998;2023-06-22T14:29:19;26.60;90.10
1453;DHT22;720;47.738;7.998;2023-06-22T14:31:45;26.60;88.50
1453;DHT22;720;47.738;7.998;2023-06-22T14:34:11;26.70;86.30
1453;DHT22;720;47.738;7.998;2023-06-22T14:36:37;26.80;84.00
1453;DHT22;720;47.738;7.998;2023-06-22T14:39:02;26.80;84.40
1453;DHT22;720;47.738;7.998;2023-06-22T14:41:30;26.90;84.20
1453;DHT22;720;47.738;7.998;2023-06-22T14:43:56;26.70;82.60
1453;DHT22;720;47.738;7.998;2023-06-22T14:46:22;26.60;81.80
1453;DHT22;720;47.738;7.998;2023-06-22T14:48:48;26.50;85.30
1453;DHT22;720;47.738;7.998;2023-06-22T14:51:14;26.40;88.40
1453;DHT22;720;47.738;7.998;2023-06-22T14:53:42;26.20;89.70
1453;DHT22;720;47.738;7.998;2023-06-22T14:56:07;26.00;90.10
1453;DHT22;720;47.738;7.998;2023-06-22T14:58:33;25.80;87.80
1453;DHT22;720;47.738;7.998;2023-06-22T15:01:00;25.60;89.80
1453;DHT22;720;47.738;7.998;2023-06-22T15:03:25;25.30;90.40
1453;DHT22;720;47.738;7.998;2023-06-22T15:05:54;25.10;91.10
1453;DHT22;720;47.738;7.998;2023-06-22T15:08:20;25.00;91.10
1453;DHT22;720;47.738;7.998;2023-06-22T15:10:46;24.70;91.10
1453;DHT22;720;47.738;7.998;2023-06-22T15:13:12;24.50;92.80
1453;DHT22;720;47.738;7.998;2023-06-22T15:15:37;24.20;94.60
1453;DHT22;720;47.738;7.998;2023-06-22T15:18:03;23.70;92.40
1453;DHT22;720;47.738;7.998;2023-06-22T15:20:29;23.30;95.50
1453;DHT22;720;47.738;7.998;2023-06-22T15:22:57;22.90;94.70
1453;DHT22;720;47.738;7.998;2023-06-22T15:25:23;22.70;98.40
1453;DHT22;720;47.738;7.998;2023-06-22T15:27:48;22.40;99.90
1453;DHT22;720;47.738;7.998;2023-06-22T15:30:14;22.20;99.90
1453;DHT22;720;47.738;7.998;2023-06-22T15:32:43;22.10;99.90
1453;DHT22;720;47.738;7.998;2023-06-22T15:35:10;21.90;99.90
1453;DHT22;720;47.738;7.998;2023-06-22T15:37:36;21.70;99.90
1453;DHT22;720;47.738;7.998;2023-06-22T15:40:02;21.50;99.90
1453;DHT22;720;47.738;7.998;2023-06-22T15:42:28;21.40;99.90
1453;DHT22;720;47.738;7.998;2023-06-22T15:44:54;21.20;99.90
1453;DHT22;720;47.738;7.998;2023-06-22T15:47:19;20.50;99.90
1453;DHT22;720;47.738;7.998;2023-06-22T15:49:48;20.80;99.90
1453;DHT22;720;47.738;7.998;2023-06-22T15:52:14;20.70;99.90
1453;DHT22;720;47.738;7.998;2023-06-22T15:54:47;20.60;99.90
1453;DHT22;720;47.738;7.998;2023-06-22T15:57:13;20.60;99.90
1453;DHT22;720;47.738;7.998;2023-06-22T15:59:41;20.70;99.90
1453;DHT22;720;47.738;7.998;2023-06-22T16:02:08;20.70;99.90
1453;DHT22;720;47.738;7.998;2023-06-22T16:04:34;20.70;99.90
1453;DHT22;720;47.738;7.998;2023-06-22T16:07:00;20.70;99.90
1453;DHT22;720;47.738;7.998;2023-06-22T16:09:26;20.60;99.90
1453;DHT22;720;47.738;7.998;2023-06-22T16:11:52;20.60;99.90
1453;DHT22;720;47.738;7.998;2023-06-22T16:14:18;20.60;99.90
1453;DHT22;720;47.738;7.998;2023-06-22T16:16:43;20.60;99.90
1453;DHT22;720;47.738;7.998;2023-06-22T16:19:09;20.70;99.90
1453;DHT22;720;47.738;7.998;2023-06-22T16:21:34;20.60;99.90